Time;durP1;ratioP1;P1;durP2;ratioP2;P2;SDS_P1;SDS_P2;PMS_P1;PMS_P2;Temp;Humidity;BMP_temperature;BMP_pressure;BME280_temperature;BME280_humidity;BME280_pressure;Samples;Min_cycle;Max_cycle;Signal;HPM_P1;HPM_P2
2021/05/05 00:00:57;;;;;;;6.67;4.20;;;;;;;10.70;100.00;95110.22;5079687;28;20287;-72
2021/05/05 00:03:23;;;;;;;8.40;4.67;;;;;;;10.57;100.00;95110.25;5078971;28;20203;-72
2021/05/05 00:05:49;;;;;;;5.43;4.03;;;;;;;10.50;100.00;95111.25;5078836;28;20203;-71
2021/05/05 00:08:15;;;;;;;5.43;2.73;;;;;;;10.49;100.00;95107.81;5078946;28;20315;-72
2021/05/05 00:10:41;;;;;;;7.07;4.47;;;;;;;10.42;100.00;95108.84;5079530;28;20200;-72
2021/05/05 00:13:07;;;;;;;5.97;4.00;;;;;;;10.34;100.00;95101.16;5079300;28;20208;-72
2021/05/05 00:15:33;;;;;;;6.13;4.33;;;;;;;10.32;100.00;95089.19;5079201;28;20917;-72
2021/05/05 00:18:00;;;;;;;9.60;4.70;;;;;;;10.30;100.00;95092.03;5078408;28;20227;-72
2021/05/05 00:20:26;;;;;;;6.17;4.20;;;;;;;10.26;100.00;95090.81;5078416;28;20219;-72
2021/05/05 00:22:52;;;;;;;5.47;3.93;;;;;;;10.24;100.00;95090.19;5079264;28;20208;-72
2021/05/05 00:25:20;;;;;;;5.50;4.43;;;;;;;10.25;100.00;95089.19;5079342;28;20196;-72
2021/05/05 00:27:46;;;;;;;6.90;4.50;;;;;;;10.27;100.00;95081.09;5078451;28;20206;-72
2021/05/05 00:30:13;;;;;;;9.87;5.20;;;;;;;10.18;100.00;95077.84;5078650;28;21286;-72
2021/05/05 00:32:40;;;;;;;6.97;4.80;;;;;;;10.16;100.00;95076.44;5079482;28;20212;-72
2021/05/05 00:35:07;;;;;;;10.03;5.17;;;;;;;10.11;100.00;95079.66;5077713;28;20203;-72
2021/05/05 00:37:33;;;;;;;7.60;5.10;;;;;;;10.10;100.00;95072.78;5078413;28;21292;-72
2021/05/05 00:40:00;;;;;;;7.80;4.80;;;;;;;10.13;100.00;95066.31;5079445;28;20224;-72
2021/05/05 00:42:26;;;;;;;9.23;5.13;;;;;;;10.08;100.00;95068.72;5078583;28;20228;-72
2021/05/05 00:44:57;;;;;;;7.33;5.20;;;;;;;10.11;100.00;95071.78;5078554;28;20218;-72
2021/05/05 00:47:24;;;;;;;7.60;4.80;;;;;;;10.09;100.00;95071.16;5078205;28;20219;-72
2021/05/05 00:49:50;;;;;;;7.30;4.90;;;;;;;10.08;100.00;95072.19;5078393;28;20236;-71
2021/05/05 00:52:17;;;;;;;9.53;5.50;;;;;;;10.03;100.00;95077.25;5078833;28;20200;-72
2021/05/05 00:54:43;;;;;;;6.30;4.70;;;;;;;10.00;100.00;95085.53;5078630;28;20203;-71
2021/05/05 00:57:09;;;;;;;10.47;5.90;;;;;;;9.88;100.00;95068.69;5077598;28;20227;-73
2021/05/05 00:59:35;;;;;;;8.60;5.10;;;;;;;9.94;100.00;95080.22;5077923;28;20223;-72
2021/05/05 01:02:01;;;;;;;8.27;5.27;;;;;;;9.98;100.00;95063.88;5078553;28;20210;-72
2021/05/05 01:04:27;;;;;;;7.70;5.40;;;;;;;9.92;100.00;95072.53;5078261;28;20705;-72
2021/05/05 01:06:54;;;;;;;8.50;5.60;;;;;;;9.85;100.00;95070.91;5077606;28;20288;-72
2021/05/05 01:09:21;;;;;;;9.63;5.37;;;;;;;9.87;100.00;95080.22;5077224;28;20216;-72
2021/05/05 01:11:47;;;;;;;8.53;5.33;;;;;;;9.71;100.00;95072.72;5078202;28;21321;-71
2021/05/05 01:14:13;;;;;;;10.50;6.23;;;;;;;9.66;100.00;95081.41;5078063;28;20200;-72
2021/05/05 01:16:39;;;;;;;9.47;5.10;;;;;;;9.33;100.00;95081.31;5076990;28;20257;-72
2021/05/05 01:19:05;;;;;;;3.57;1.00;;;;;;;8.57;100.00;95082.56;5078063;28;20314;-71
2021/05/05 01:21:32;;;;;;;0.63;0.63;;;;;;;8.40;100.00;95096.16;5078320;28;20260;-72
2021/05/05 01:23:58;;;;;;;1.13;0.80;;;;;;;8.09;100.00;95104.34;5077380;28;20200;-71
2021/05/05 01:26:24;;;;;;;0.60;0.50;;;;;;;7.98;100.00;95096.19;5077734;28;20206;-71
2021/05/05 01:28:50;;;;;;;0.50;0.40;;;;;;;7.77;100.00;95088.34;5078002;28;21360;-71
2021/05/05 01:31:17;;;;;;;0.60;0.50;;;;;;;7.78;100.00;95104.88;5076575;28;20200;-71
2021/05/05 01:33:44;;;;;;;1.60;0.60;;;;;;;7.61;100.00;95141.03;5077870;28;20257;-72
2021/05/05 01:36:12;;;;;;;3.17;1.00;;;;;;;7.63;100.00;95123.28;5077762;28;20208;-72
2021/05/05 01:38:39;;;;;;;0.50;0.40;;;;;;;7.63;100.00;95063.00;5077406;28;20224;-72
2021/05/05 01:41:05;;;;;;;0.50;0.50;;;;;;;7.42;100.00;95135.53;5077614;28;20199;-72
2021/05/05 01:43:32;;;;;;;1.03;0.53;;;;;;;7.26;100.00;95048.50;5077937;28;20674;-72
2021/05/05 01:45:58;;;;;;;0.57;0.50;;;;;;;7.22;100.00;95121.41;5076906;28;20352;-71
2021/05/05 01:48:24;;;;;;;3.10;0.60;;;;;;;7.26;100.00;95073.69;5077677;28;20196;-72
2021/05/05 01:50:50;;;;;;;2.03;0.70;;;;;;;6.98;100.00;95106.00;5077534;28;20204;-71
2021/05/05 01:53:17;;;;;;;2.80;0.63;;;;;;;7.08;100.00;95079.53;5077774;28;20210;-71
2021/05/05 01:55:44;;;;;;;0.80;0.57;;;;;;;7.09;100.00;95107.34;5076553;28;20214;-71
2021/05/05 01:58:10;;;;;;;0.77;0.50;;;;;;;7.22;100.00;95068.19;5077240;28;20223;-71
2021/05/05 02:00:36;;;;;;;1.00;0.60;;;;;;;7.23;100.00;95085.53;5077084;28;20227;-71
2021/05/05 02:03:02;;;;;;;2.77;0.67;;;;;;;7.28;100.00;95066.47;5077270;28;20200;-72
2021/05/05 02:05:28;;;;;;;1.53;0.70;;;;;;;7.32;100.00;95099.16;5076267;28;20215;-72
2021/05/05 02:07:55;;;;;;;1.43;0.60;;;;;;;7.17;100.00;95094.97;5077382;28;20670;-71
2021/05/05 02:10:21;;;;;;;1.37;0.70;;;;;;;7.30;100.00;95071.53;5076673;28;20230;-72
2021/05/05 02:12:49;;;;;;;1.67;0.80;;;;;;;7.35;100.00;95087.50;5077115;28;20244;-72
2021/05/05 02:15:18;;;;;;;3.83;0.80;;;;;;;7.39;100.00;95079.06;5076132;28;20268;-72
2021/05/05 02:17:44;;;;;;;1.93;0.70;;;;;;;7.41;100.00;95056.13;5077246;28;20224;-71
2021/05/05 02:20:12;;;;;;;1.10;0.60;;;;;;;7.30;100.00;95079.38;5076555;28;20223;-71
2021/05/05 02:22:39;;;;;;;1.03;0.60;;;;;;;7.17;100.00;95070.59;5077224;28;20207;-71
2021/05/05 02:25:07;;;;;;;0.90;0.70;;;;;;;7.26;100.00;95077.31;5075996;28;20301;-72
2021/05/05 02:27:34;;;;;;;1.60;0.80;;;;;;;7.36;100.00;95073.41;5076491;28;20226;-72
2021/05/05 02:30:01;;;;;;;2.13;0.63;;;;;;;7.30;100.00;95076.75;5076558;28;20251;-72
2021/05/05 02:32:27;;;;;;;1.00;0.70;;;;;;;7.47;100.00;95070.28;5077215;28;20195;-72
2021/05/05 02:34:55;;;;;;;4.10;0.80;;;;;;;7.55;100.00;95073.59;5076453;28;20611;-72
2021/05/05 02:37:22;;;;;;;2.50;0.83;;;;;;;7.50;100.00;95070.72;5075900;28;20223;-72
2021/05/05 02:39:48;;;;;;;3.47;0.77;;;;;;;7.51;100.00;95071.53;5075189;28;20227;-72
2021/05/05 02:42:16;;;;;;;1.43;0.90;;;;;;;7.57;100.00;95068.97;5077956;28;20229;-72
2021/05/05 02:44:44;;;;;;;1.37;0.80;;;;;;;7.58;100.00;95059.31;5080952;28;20210;-71
2021/05/05 02:47:12;;;;;;;2.90;0.93;;;;;;;7.45;100.00;95060.00;5079977;28;20191;-71
2021/05/05 02:49:38;;;;;;;2.17;1.00;;;;;;;7.52;100.00;95063.50;5081769;28;20223;-72
2021/05/05 02:52:05;;;;;;;2.53;0.83;;;;;;;7.37;100.00;95062.75;5080207;28;20192;-72
2021/05/05 02:54:32;;;;;;;7.40;0.90;;;;;;;7.43;100.00;95064.63;5080841;28;20208;-72
2021/05/05 02:56:58;;;;;;;1.47;0.80;;;;;;;7.44;100.00;95068.84;5080336;28;20215;-72
2021/05/05 02:59:25;;;;;;;3.37;0.97;;;;;;;7.47;100.00;95062.41;5080558;28;20234;-71
2021/05/05 03:01:51;;;;;;;3.63;0.90;;;;;;;7.43;100.00;95063.78;5080654;28;20698;-71
2021/05/05 03:04:18;;;;;;;2.57;1.00;;;;;;;7.49;100.00;95074.34;5081139;28;20199;-72
2021/05/05 03:06:44;;;;;;;5.70;1.20;;;;;;;7.53;100.00;95059.88;5079563;28;20207;-71
2021/05/05 03:09:11;;;;;;;3.80;1.00;;;;;;;7.35;100.00;95058.69;5080678;28;20220;-71
2021/05/05 03:11:37;;;;;;;2.80;1.00;;;;;;;7.12;100.00;95062.47;5080909;28;20624;-71
2021/05/05 03:14:03;;;;;;;2.93;0.93;;;;;;;7.16;100.00;95076.81;5080574;28;20211;-71
2021/05/05 03:16:29;;;;;;;5.40;1.43;;;;;;;7.17;100.00;95075.81;5076861;28;20230;-71
2021/05/05 03:18:55;;;;;;;3.33;1.07;;;;;;;7.21;100.00;95079.69;5080628;28;20250;-71
2021/05/05 03:21:22;;;;;;;2.00;0.97;;;;;;;7.23;100.00;95081.13;5080058;28;20785;-72
2021/05/05 03:23:49;;;;;;;2.87;1.40;;;;;;;7.11;100.00;95087.03;5080154;28;20204;-71
2021/05/05 03:26:15;;;;;;;5.03;1.37;;;;;;;7.14;100.00;95078.78;5079577;28;20558;-71
2021/05/05 03:28:41;;;;;;;4.20;1.40;;;;;;;6.93;100.00;95083.97;5079961;28;20226;-71
2021/05/05 03:31:07;;;;;;;8.13;1.90;;;;;;;7.03;100.00;95081.91;5080050;28;20210;-72
2021/05/05 03:33:33;;;;;;;5.03;1.80;;;;;;;7.04;100.00;95084.31;5079756;28;20745;-72
2021/05/05 03:35:59;;;;;;;5.37;1.60;;;;;;;7.15;100.00;95086.44;5079326;28;20204;-71
2021/05/05 03:38:27;;;;;;;5.70;1.47;;;;;;;7.14;100.00;95091.88;5079737;28;20220;-72
2021/05/05 03:40:53;;;;;;;3.87;1.50;;;;;;;7.10;100.00;95088.81;5080282;28;20200;-72
2021/05/05 03:43:19;;;;;;;2.80;1.10;;;;;;;7.17;100.00;95086.28;5080025;28;20204;-72
2021/05/05 03:45:45;;;;;;;4.87;1.50;;;;;;;7.14;100.00;95107.59;5079274;28;20210;-72
2021/05/05 03:48:11;;;;;;;3.93;2.43;;;;;;;6.94;100.00;95103.94;5079625;28;20568;-72
2021/05/05 03:50:37;;;;;;;3.80;1.50;;;;;;;6.74;100.00;95113.31;5080442;28;21024;-71
2021/05/05 03:53:03;;;;;;;4.03;1.53;;;;;;;6.57;100.00;95104.03;5078689;28;20199;-72
2021/05/05 03:55:31;;;;;;;2.30;1.30;;;;;;;6.54;100.00;95100.97;5078655;28;20200;-71
2021/05/05 03:57:57;;;;;;;3.33;1.00;;;;;;;6.50;100.00;95108.34;5079984;28;20227;-72
2021/05/05 04:00:23;;;;;;;3.67;1.90;;;;;;;6.53;100.00;95105.41;5080100;28;20310;-71
2021/05/05 04:02:49;;;;;;;5.40;1.17;;;;;;;6.52;100.00;95102.94;5079052;28;20199;-72
2021/05/05 04:05:15;;;;;;;4.27;1.20;;;;;;;6.60;100.00;95095.00;5078360;28;20204;-72
2021/05/05 04:07:41;;;;;;;2.20;1.03;;;;;;;6.59;100.00;95091.56;5080348;28;20204;-71
2021/05/05 04:10:09;;;;;;;3.67;1.27;;;;;;;6.63;100.00;95089.41;5079150;28;20339;-71
2021/05/05 04:12:36;;;;;;;4.23;1.37;;;;;;;6.63;100.00;95084.97;5079521;28;20216;-71
2021/05/05 04:15:03;;;;;;;4.80;1.20;;;;;;;6.64;100.00;95086.59;5078971;28;20200;-71
2021/05/05 04:17:29;;;;;;;5.23;1.20;;;;;;;6.76;100.00;95077.31;5079038;28;20236;-71
2021/05/05 04:19:56;;;;;;;3.63;1.23;;;;;;;6.87;100.00;95079.47;5079038;28;20675;-70
2021/05/05 04:22:23;;;;;;;5.17;1.20;;;;;;;6.89;100.00;95086.16;5079811;28;20317;-71
2021/05/05 04:24:50;;;;;;;2.17;1.00;;;;;;;6.95;100.00;95095.06;5079384;28;20204;-71
2021/05/05 04:27:16;;;;;;;5.67;1.10;;;;;;;7.02;100.00;95088.13;5078306;28;20196;-71
2021/05/05 04:29:43;;;;;;;2.07;1.10;;;;;;;6.98;100.00;95105.19;5079431;28;20224;-71
2021/05/05 04:32:10;;;;;;;4.30;1.40;;;;;;;7.05;100.00;95122.63;5078945;28;20204;-71
2021/05/05 04:34:36;;;;;;;4.73;1.80;;;;;;;7.07;100.00;95122.44;5078877;28;20574;-71
2021/05/05 04:37:03;;;;;;;3.70;1.30;;;;;;;7.03;100.00;95139.50;5078169;28;20196;-71
2021/05/05 04:39:29;;;;;;;4.82;1.45;;;;;;;7.00;100.00;95134.63;5078504;28;20556;-70
2021/05/05 04:41:55;;;;;;;3.47;1.40;;;;;;;7.02;100.00;95137.88;5078635;28;20576;-72
2021/05/05 04:44:21;;;;;;;7.03;1.27;;;;;;;7.06;100.00;95149.63;5078642;28;20195;-72
2021/05/05 04:46:48;;;;;;;4.40;1.30;;;;;;;7.02;100.00;95143.91;5077074;28;20203;-70
2021/05/05 04:49:14;;;;;;;3.00;1.40;;;;;;;7.00;100.00;95139.84;5078146;28;20841;-72
2021/05/05 04:51:40;;;;;;;3.83;1.90;;;;;;;7.04;100.00;95151.59;5078599;28;20208;-70
2021/05/05 04:54:07;;;;;;;5.70;2.57;;;;;;;6.90;100.00;95160.28;5078649;28;20311;-70
2021/05/05 04:56:33;;;;;;;8.73;2.67;;;;;;;6.99;100.00;95148.72;5077658;28;20228;-71
2021/05/05 04:58:59;;;;;;;10.80;2.87;;;;;;;7.00;100.00;95145.91;5078850;28;20227;-71
2021/05/05 05:01:25;;;;;;;10.30;3.13;;;;;;;7.08;100.00;95148.44;5078005;28;20200;-72
2021/05/05 05:03:52;;;;;;;6.63;2.60;;;;;;;7.15;100.00;95140.66;5079143;28;20714;-69
2021/05/05 05:06:18;;;;;;;6.93;2.53;;;;;;;7.10;100.00;95151.66;5077180;28;20207;-71
2021/05/05 05:08:44;;;;;;;4.47;2.10;;;;;;;7.06;100.00;95154.84;5077638;28;20223;-71
2021/05/05 05:11:10;;;;;;;4.90;1.87;;;;;;;7.12;100.00;95160.16;5078331;28;20246;-72
2021/05/05 05:13:36;;;;;;;6.90;2.13;;;;;;;7.17;100.00;95167.50;5078752;28;20250;-71
2021/05/05 05:16:02;;;;;;;4.17;2.40;;;;;;;7.19;100.00;95175.97;5077588;28;20597;-72
2021/05/05 05:18:28;;;;;;;5.97;2.20;;;;;;;7.17;100.00;95180.59;5078514;28;20226;-72
2021/05/05 05:20:54;;;;;;;10.10;5.17;;;;;;;6.99;100.00;95193.25;5077579;28;20211;-71
2021/05/05 05:23:20;;;;;;;13.27;3.83;;;;;;;7.06;100.00;95205.41;5077994;28;20556;-71
2021/05/05 05:25:46;;;;;;;6.20;3.07;;;;;;;7.04;100.00;95206.59;5074977;28;20204;-72
2021/05/05 05:28:12;;;;;;;5.30;2.40;;;;;;;7.15;100.00;95216.63;5077765;28;20192;-72
2021/05/05 05:30:38;;;;;;;7.43;2.43;;;;;;;7.27;100.00;95211.56;5077649;28;20211;-70
2021/05/05 05:33:04;;;;;;;4.47;2.43;;;;;;;7.18;100.00;95221.50;5077651;28;21148;-71
2021/05/05 05:35:31;;;;;;;5.43;1.97;;;;;;;7.12;100.00;95227.47;5077568;28;20588;-72
2021/05/05 05:37:58;;;;;;;4.67;1.90;;;;;;;7.19;100.00;95231.78;5077071;28;20230;-69
2021/05/05 05:40:24;;;;;;;4.43;1.60;;;;;;;7.07;100.00;95241.09;5077810;28;20219;-71
2021/05/05 05:42:50;;;;;;;5.50;1.87;;;;;;;6.96;100.00;95245.97;5077453;28;20199;-72
2021/05/05 05:45:18;;;;;;;4.67;1.70;;;;;;;7.02;100.00;95240.81;5077418;28;20200;-71
2021/05/05 05:47:44;;;;;;;3.67;1.20;;;;;;;6.95;100.00;95241.72;5077475;28;20207;-72
2021/05/05 05:50:12;;;;;;;2.60;1.27;;;;;;;7.01;100.00;95254.09;5077961;28;20215;-71
2021/05/05 05:52:38;;;;;;;2.07;1.30;;;;;;;7.03;100.00;95241.66;5077451;28;20665;-69
2021/05/05 05:55:07;;;;;;;4.03;1.40;;;;;;;7.06;100.00;95249.13;5076916;28;20200;-69
2021/05/05 05:57:33;;;;;;;2.63;1.40;;;;;;;6.88;100.00;95235.56;5076666;28;20598;-72
2021/05/05 05:59:59;;;;;;;2.13;0.80;;;;;;;6.78;100.00;95237.63;5078640;28;20223;-71
2021/05/05 06:02:25;;;;;;;1.93;0.80;;;;;;;6.76;100.00;95237.00;5077408;28;20196;-69
2021/05/05 06:04:52;;;;;;;1.63;0.67;;;;;;;6.79;100.00;95247.13;5077365;28;20749;-69
2021/05/05 06:07:18;;;;;;;1.27;0.90;;;;;;;6.80;100.00;95259.22;5076324;28;20597;-69
2021/05/05 06:09:44;;;;;;;6.33;1.60;;;;;;;6.88;100.00;95256.53;5077347;28;20224;-71
2021/05/05 06:12:11;;;;;;;3.47;1.50;;;;;;;7.00;100.00;95257.69;5076733;28;20329;-71
2021/05/05 06:14:37;;;;;;;4.73;1.27;;;;;;;6.84;100.00;95256.06;5077081;28;20207;-71
2021/05/05 06:17:03;;;;;;;2.07;1.50;;;;;;;7.02;100.00;95263.59;5076095;28;20683;-71
2021/05/05 06:19:29;;;;;;;2.10;1.40;;;;;;;6.96;100.00;95261.66;5076805;28;20626;-70
2021/05/05 06:21:55;;;;;;;3.50;1.20;;;;;;;7.02;100.00;95264.38;5077269;28;20258;-70
2021/05/05 06:24:21;;;;;;;3.67;1.17;;;;;;;7.03;100.00;95270.47;5076751;28;20651;-70
2021/05/05 06:26:47;;;;;;;4.33;1.60;;;;;;;7.07;100.00;95271.72;5074182;28;20219;-71
2021/05/05 06:29:14;;;;;;;2.40;1.33;;;;;;;7.00;100.00;95282.09;5076658;28;20248;-70
2021/05/05 06:31:40;;;;;;;4.07;1.40;;;;;;;6.98;100.00;95281.44;5077421;28;20199;-72
2021/05/05 06:34:07;;;;;;;3.50;1.50;;;;;;;6.97;100.00;95289.50;5076534;28;20282;-70
2021/05/05 06:36:33;;;;;;;2.00;1.33;;;;;;;7.04;100.00;95280.75;5076083;28;20204;-70
2021/05/05 06:38:59;;;;;;;1.93;0.87;;;;;;;7.09;100.00;95281.03;5076515;28;20996;-70
2021/05/05 06:41:25;;;;;;;1.23;0.40;;;;;;;7.09;100.00;95291.50;5076993;28;20199;-70
2021/05/05 06:43:51;;;;;;;1.40;0.57;;;;;;;7.07;100.00;95287.44;5076524;28;20235;-70
2021/05/05 06:46:18;;;;;;;3.83;0.70;;;;;;;7.18;100.00;95300.09;5076408;28;20211;-70
2021/05/05 06:48:44;;;;;;;1.37;0.50;;;;;;;7.26;100.00;95288.53;5076679;28;20231;-71
2021/05/05 06:51:10;;;;;;;2.73;1.03;;;;;;;7.27;100.00;95298.03;5076457;28;20930;-71
2021/05/05 06:53:36;;;;;;;2.43;0.60;;;;;;;7.34;100.00;95298.94;5077086;28;20207;-71
2021/05/05 06:56:02;;;;;;;3.07;0.70;;;;;;;7.35;100.00;95305.00;5075423;28;20700;-71
2021/05/05 06:58:28;;;;;;;3.73;1.20;;;;;;;7.41;100.00;95299.84;5076862;28;20343;-71
2021/05/05 07:00:54;;;;;;;2.77;0.70;;;;;;;7.35;100.00;95300.53;5076732;28;20207;-70
2021/05/05 07:03:20;;;;;;;2.93;1.07;;;;;;;7.34;100.00;95296.31;5077301;28;20199;-69
2021/05/05 07:05:46;;;;;;;2.60;1.13;;;;;;;7.32;100.00;95287.81;5075843;28;20215;-70
2021/05/05 07:08:12;;;;;;;1.97;1.10;;;;;;;7.38;100.00;95294.13;5076125;28;20192;-70
2021/05/05 07:10:38;;;;;;;5.07;1.00;;;;;;;7.56;100.00;95290.19;5077487;28;20242;-71
2021/05/05 07:13:04;;;;;;;1.87;0.90;;;;;;;7.69;100.00;95292.97;5077164;28;20290;-71
2021/05/05 07:15:31;;;;;;;1.23;1.07;;;;;;;7.56;100.00;95295.41;5075414;28;20292;-70
2021/05/05 07:17:57;;;;;;;2.10;1.20;;;;;;;7.49;100.00;95309.44;5077076;28;20223;-71
2021/05/05 07:20:24;;;;;;;2.13;1.50;;;;;;;7.51;100.00;95304.78;5076672;28;20215;-71
2021/05/05 07:22:50;;;;;;;5.13;2.00;;;;;;;7.58;100.00;95314.38;5076534;28;20204;-71
2021/05/05 07:25:16;;;;;;;2.10;1.40;;;;;;;7.57;100.00;95318.00;5074643;28;20278;-71
2021/05/05 07:27:43;;;;;;;2.57;1.13;;;;;;;7.53;100.00;95321.16;5076765;28;20231;-70
2021/05/05 07:30:10;;;;;;;3.63;1.40;;;;;;;7.62;100.00;95317.47;5080016;28;20255;-71
2021/05/05 07:32:36;;;;;;;4.40;1.53;;;;;;;7.60;100.00;95319.44;5080256;28;20231;-70
2021/05/05 07:35:08;;;;;;;5.77;1.60;;;;;;;7.67;100.00;95326.41;5078968;28;20638;-70
2021/05/05 07:37:55;;;;;;;7.40;2.00;;;;;;;7.83;100.00;95328.84;5079814;28;20247;-71
2021/05/05 07:46:05;;;;;;;3.07;1.13;;;;;;;7.76;100.00;95333.19;5078779;28;20200;-71
2021/05/05 07:48:37;;;;;;;2.60;1.30;;;;;;;7.74;100.00;95331.72;5079568;28;20204;-69
2021/05/05 07:51:03;;;;;;;2.83;1.30;;;;;;;7.71;100.00;95324.25;5079867;28;20252;-71
2021/05/05 07:53:30;;;;;;;2.97;1.20;;;;;;;7.78;100.00;95331.22;5079930;28;20212;-71
2021/05/05 07:55:58;;;;;;;4.80;1.43;;;;;;;7.74;100.00;95329.94;5078845;28;20207;-71
2021/05/05 07:58:24;;;;;;;5.43;1.60;;;;;;;7.86;100.00;95338.97;5079293;28;20273;-70
2021/05/05 08:00:50;;;;;;;3.20;1.30;;;;;;;7.89;100.00;95338.59;5079918;28;20211;-70
2021/05/05 08:03:16;;;;;;;3.47;1.70;;;;;;;7.93;100.00;95351.19;5079453;28;20253;-71
2021/05/05 08:05:42;;;;;;;6.70;1.40;;;;;;;7.84;100.00;95340.16;5079186;28;20208;-71
2021/05/05 08:08:08;;;;;;;2.97;1.50;;;;;;;7.89;100.00;95352.53;5079578;28;20203;-71
2021/05/05 08:10:37;;;;;;;3.07;1.37;;;;;;;7.70;100.00;95346.22;5079282;28;20286;-71
2021/05/05 08:13:03;;;;;;;7.07;1.40;;;;;;;7.71;100.00;95359.13;5078969;28;20642;-71
2021/05/05 08:15:33;;;;;;;4.17;1.40;;;;;;;7.63;100.00;95353.19;5078603;28;20242;-70
2021/05/05 08:17:59;;;;;;;5.53;1.43;;;;;;;7.71;100.00;95361.75;5078766;28;20224;-70
2021/05/05 08:20:25;;;;;;;6.07;1.50;;;;;;;7.66;100.00;95368.53;5078829;28;20584;-71
2021/05/05 08:22:51;;;;;;;5.83;2.00;;;;;;;7.68;100.00;95377.84;5079736;28;20204;-71
2021/05/05 08:25:17;;;;;;;7.80;1.53;;;;;;;7.67;100.00;95381.47;5077304;28;20291;-69
2021/05/05 08:27:44;;;;;;;2.17;1.10;;;;;;;7.66;100.00;95392.97;5076607;28;20365;-70
2021/05/05 08:30:11;;;;;;;6.43;1.70;;;;;;;7.73;100.00;95391.25;5078968;28;21135;-70
2021/05/05 08:32:37;;;;;;;7.00;1.80;;;;;;;7.70;100.00;95403.88;5079158;28;20211;-70
2021/05/05 08:35:04;;;;;;;5.53;1.97;;;;;;;7.72;100.00;95413.19;5078110;28;20547;-70
2021/05/05 08:37:30;;;;;;;3.63;1.50;;;;;;;7.88;99.39;95408.59;5078662;28;20735;-71
2021/05/05 08:39:57;;;;;;;6.33;2.30;;;;;;;8.04;97.54;95399.75;5077681;28;20310;-71
2021/05/05 08:42:23;;;;;;;4.80;1.43;;;;;;;7.95;89.76;95400.81;5078758;28;20203;-71
2021/05/05 08:44:50;;;;;;;6.80;1.70;;;;;;;8.05;90.74;95422.34;5078989;28;20689;-71
2021/05/05 08:47:17;;;;;;;5.83;1.40;;;;;;;8.18;86.97;95407.63;5077963;28;20208;-71
2021/05/05 08:49:44;;;;;;;6.63;1.40;;;;;;;8.13;85.81;95422.25;5078378;28;20352;-69
2021/05/05 08:52:10;;;;;;;1.73;1.00;;;;;;;8.13;82.83;95414.38;5078818;28;20200;-70
2021/05/05 08:54:36;;;;;;;3.50;0.93;;;;;;;8.32;83.10;95414.66;5078335;28;20199;-71
2021/05/05 08:57:02;;;;;;;6.17;1.83;;;;;;;8.22;81.62;95395.78;5078106;28;20204;-71
2021/05/05 08:59:29;;;;;;;5.27;1.37;;;;;;;8.47;84.57;95388.41;5077717;28;20231;-70
2021/05/05 09:01:56;;;;;;;4.23;1.10;;;;;;;8.52;82.76;95395.53;5078912;28;20239;-70
2021/05/05 09:04:22;;;;;;;2.77;1.30;;;;;;;8.48;79.71;95402.16;5078226;28;20195;-71
2021/05/05 09:06:50;;;;;;;8.30;1.47;;;;;;;8.38;75.05;95386.91;5077918;28;20211;-70
2021/05/05 09:09:40;;;;;;;6.47;1.20;;;;;;;8.61;75.42;95396.25;5077621;28;20269;-71
2021/05/05 09:12:18;;;;;;;4.33;1.27;;;;;;;8.67;75.46;95388.44;5078249;28;20729;-71
2021/05/05 09:14:55;;;;;;;4.80;1.13;;;;;;;8.82;74.33;95391.84;5077640;28;21001;-71
2021/05/05 09:17:24;;;;;;;5.67;1.30;;;;;;;8.78;71.41;95390.59;5077623;28;20810;-71
2021/05/05 09:19:50;;;;;;;5.13;1.60;;;;;;;8.97;74.41;95389.94;5077683;28;20227;-70
2021/05/05 09:22:36;;;;;;;3.53;1.10;;;;;;;8.84;69.30;95383.78;5078276;28;20216;-69
2021/05/05 09:25:04;;;;;;;6.07;1.30;;;;;;;8.97;71.11;95400.47;5077317;28;20271;-70
2021/05/05 09:27:33;;;;;;;7.03;1.47;;;;;;;8.87;66.66;95393.91;5075319;28;20294;-70
2021/05/05 09:30:00;;;;;;;2.30;0.97;;;;;;;8.91;68.37;95389.88;5076955;28;20224;-70
2021/05/05 09:32:28;;;;;;;2.70;0.93;;;;;;;9.03;69.76;95399.72;5078393;28;20236;-70
2021/05/05 09:34:58;;;;;;;1.63;0.90;;;;;;;8.85;67.00;95398.53;5078243;28;20199;-71
2021/05/05 09:37:25;;;;;;;3.50;1.23;;;;;;;8.86;67.52;95410.66;5076820;28;20623;-71
2021/05/05 09:39:58;;;;;;;3.67;1.30;;;;;;;8.67;66.19;95404.19;5077077;28;20219;-71
2021/05/05 09:42:26;;;;;;;3.03;1.30;;;;;;;8.76;65.33;95397.81;5077637;28;20669;-71
2021/05/05 09:44:53;;;;;;;2.63;1.40;;;;;;;8.83;68.49;95411.81;5078076;28;20199;-70
2021/05/05 09:47:19;;;;;;;2.70;1.17;;;;;;;8.87;65.39;95402.59;5076320;28;20244;-71
2021/05/05 09:49:46;;;;;;;3.30;1.13;;;;;;;9.14;64.78;95407.13;5078094;28;20253;-71
2021/05/05 09:52:15;;;;;;;3.40;1.50;;;;;;;9.22;63.89;95417.50;5076569;28;20199;-71
2021/05/05 09:54:54;;;;;;;5.83;1.10;;;;;;;9.31;63.33;95401.38;5077271;28;20632;-70
2021/05/05 09:57:22;;;;;;;4.20;1.40;;;;;;;9.78;66.29;95399.72;5076268;28;20909;-71
2021/05/05 10:00:03;;;;;;;2.77;1.23;;;;;;;10.06;63.83;95405.81;5077444;28;20220;-71
2021/05/05 10:02:32;;;;;;;5.17;1.23;;;;;;;9.84;60.18;95417.41;5077264;28;20200;-71
2021/05/05 10:05:00;;;;;;;7.43;1.90;;;;;;;10.23;61.57;95416.84;5077882;28;20618;-71
2021/05/05 10:07:28;;;;;;;2.10;1.23;;;;;;;10.29;58.08;95403.72;5076811;28;20223;-69
2021/05/05 10:09:54;;;;;;;3.53;1.20;;;;;;;10.25;57.94;95420.13;5077241;28;20292;-72
2021/05/05 10:12:22;;;;;;;3.17;1.13;;;;;;;9.83;59.24;95420.22;5077003;28;20212;-71
2021/05/05 10:14:50;;;;;;;3.57;1.27;;;;;;;9.65;59.35;95421.69;5077936;28;20297;-72
2021/05/05 10:17:17;;;;;;;5.37;1.20;;;;;;;9.54;60.34;95415.13;5075957;28;20195;-71
2021/05/05 10:19:44;;;;;;;2.23;0.80;;;;;;;9.25;58.25;95425.00;5077104;28;20231;-71
2021/05/05 10:22:12;;;;;;;5.90;1.27;;;;;;;9.31;60.49;95419.78;5076649;28;20203;-71
2021/05/05 10:24:45;;;;;;;1.17;0.80;;;;;;;9.39;58.96;95432.00;5077346;28;20576;-71
2021/05/05 10:27:12;;;;;;;6.33;1.90;;;;;;;9.47;58.87;95430.06;5072931;28;20634;-71
2021/05/05 10:29:39;;;;;;;2.60;1.20;;;;;;;9.92;60.87;95434.84;5077334;28;20642;-71
2021/05/05 10:32:10;;;;;;;10.50;1.80;;;;;;;10.14;59.09;95429.34;5076454;28;20200;-70
2021/05/05 10:34:38;;;;;;;1.33;0.83;;;;;;;10.32;57.84;95417.31;5076897;28;20684;-71
2021/05/05 10:37:05;;;;;;;2.03;1.10;;;;;;;10.77;57.44;95431.66;5076388;28;20291;-71
2021/05/05 10:39:36;;;;;;;4.57;1.17;;;;;;;10.79;54.58;95433.09;5076820;28;20235;-70
2021/05/05 10:42:06;;;;;;;2.97;0.80;;;;;;;10.86;54.70;95438.41;5076371;28;20241;-71
2021/05/05 10:44:37;;;;;;;2.53;1.17;;;;;;;10.89;54.90;95414.31;5076975;28;20211;-71
2021/05/05 10:47:27;;;;;;;5.57;1.17;;;;;;;10.63;56.12;95425.56;5077206;28;20199;-71
2021/05/05 10:50:06;;;;;;;3.67;1.30;;;;;;;11.02;56.14;95430.94;5077096;28;20223;-71
2021/05/05 10:53:03;;;;;;;4.00;1.10;;;;;;;10.81;54.40;95428.47;5076747;28;20344;-71
2021/05/05 10:55:45;;;;;;;4.43;1.33;;;;;;;11.24;56.30;95414.78;5076353;28;20212;-71
2021/05/05 10:58:14;;;;;;;2.07;0.77;;;;;;;11.40;53.26;95419.66;5076697;28;20224;-72
2021/05/05 11:00:46;;;;;;;2.53;1.03;;;;;;;11.43;50.86;95414.00;5076728;28;20223;-70
2021/05/05 11:03:12;;;;;;;4.87;1.33;;;;;;;11.58;51.29;95435.72;5078412;28;20212;-71
2021/05/05 11:05:41;;;;;;;3.60;1.20;;;;;;;11.80;51.68;95408.94;5080141;28;20199;-72
2021/05/05 11:08:08;;;;;;;3.57;1.10;;;;;;;11.59;48.66;95445.28;5080220;28;20196;-71
2021/05/05 11:10:52;;;;;;;5.70;1.40;;;;;;;11.53;51.25;95403.88;5080054;28;20601;-71
2021/05/05 11:13:40;;;;;;;3.47;1.20;;;;;;;11.30;52.49;95423.72;5079231;28;20211;-70
2021/05/05 11:16:06;;;;;;;5.50;1.00;;;;;;;11.41;50.23;95417.84;5079614;28;20942;-70
2021/05/05 11:18:48;;;;;;;4.20;1.30;;;;;;;12.01;51.74;95414.00;5080010;28;20310;-72
2021/05/05 11:21:40;;;;;;;1.93;0.80;;;;;;;12.04;51.79;95436.53;5080426;28;20231;-71
2021/05/05 11:24:40;;;;;;;2.77;1.10;;;;;;;11.76;51.17;95430.66;5079944;28;20565;-71
2021/05/05 11:27:08;;;;;;;3.67;1.23;;;;;;;11.86;52.32;95436.34;5014420;28;20206;-70
2021/05/05 11:29:40;;;;;;;3.80;0.80;;;;;;;11.61;50.71;95445.91;5016874;28;20226;-71
2021/05/05 11:32:08;;;;;;;2.77;1.47;;;;;;;11.28;48.80;95452.94;5047965;28;20905;-70
2021/05/05 11:34:37;;;;;;;5.77;1.17;;;;;;;11.35;49.76;95450.28;5080201;28;20196;-71
2021/05/05 11:37:07;;;;;;;4.60;1.03;;;;;;;11.01;51.14;95467.06;5079308;28;20202;-71
2021/05/05 11:39:36;;;;;;;3.87;1.10;;;;;;;11.37;50.27;95470.19;5079917;28;20228;-71
2021/05/05 11:42:04;;;;;;;2.07;1.00;;;;;;;11.30;46.16;95498.38;5080302;28;20840;-71